Terminal Aerodrome Forecast
Issued by NWS

Home | Current Version | Previous Version | Text Only | Print | Product List | Glossary On
Versions: 1 2 3 4 5 6 7 8 9 10 11 12 13 14 15 16
917
FTUS42 KFFC 241403 AAA
TAFRYY
TAF AMD
KRYY 241403Z 2414/2512 VRB03KT 3SM -RA BR BKN005
     FM241530 26006KT P6SM OVC012
     FM241800 29010KT P6SM BKN035
      TEMPO 2419/2423 4SM -SHRA OVC025=

USA.gov is the U.S. government's official web portal to all federal, state and local government web resources and services.